x

West Moresby (46208) Wave Buoy

2:00pm - Fri 29th Jul 2016 All times are PDT. -7 hours from GMT.

  • Sig Wave height 3.9ft
  • Peak Period 5s
  • Wind
    20mph, 22mph gusts
  • Sea Temp 58°f
  • Air Temp 59°f
  • Sea Pressure 1026mb
  • West Moresby
  • West Moresby

More Historic Weather Station data

Upgrade to MSW Pro to gain access to the past 30 days of data for over 8000 Wavebouys and Weather Stations around the globe.

Join Pro

Comparision Forecast

View Surf forecast
   
Fri 07/29 2:00pm 4ft 5s 20 22 mph 1026mb 58f 59f
1:00pm 3.5ft 8s 18 20 mph 1025.9mb 58f 58f
12:00pm 3.5ft 8s 18 20 mph 1025.8mb 58f 58f
11:00am 3.5ft 7s 16 18 mph 1025.7mb 58f 58f
10:00am 3.5ft 8s 16 18 mph 1025.6mb 58f 58f
9:00am 3.5ft 8s 13 18 mph 1025.6mb 58f 58f
8:00am 3.5ft 8s 13 18 mph 1025.5mb 58f 58f
7:00am 3.5ft 8s 13 18 mph 1025.3mb 58f 58f
6:00am 4ft 8s 13 18 mph 1025.4mb 58f 58f
5:00am 4ft 8s 18 20 mph 1025.1mb 58f 58f
4:00am 4.5ft 8s 16 18 mph 1025.6mb 59f 58f
3:00am 4ft 8s 13 16 mph 1025.7mb 59f 58f
2:00am 4ft 8s 16 18 mph 1025.6mb 59f 58f
1:00am 4.5ft 8s 13 16 mph 1025.4mb 60f 58f
12:00am 4ft 8s 13 18 mph 1025.4mb 60f 58f
Thu 07/28 11:00pm 4.5ft 8s 13 18 mph 1025.5mb 60f 59f
10:00pm 3.5ft 8s 13 16 mph 1025.4mb 60f 59f
9:00pm 4ft 8s 9 13 mph 1025.4mb 59f 59f
8:00pm 4ft 8s 9 11 mph 1025.4mb 60f 59f
7:00pm 4.5ft 8s 9
mph
1025.6mb 60f 59f
6:00pm 4.5ft 8s 4 7 mph 1025.7mb 60f 59f
5:00pm 5ft 8s 9
mph
1025.9mb 60f 59f
4:00pm 5ft 8s 7 9 mph 1026.1mb 60f 59f
3:00pm 5ft 8s 7 9 mph 1026.3mb 60f 59f
2:00pm 5ft 8s 7 9 mph 1026.3mb 60f 58f
1:00pm 4.5ft 8s 7
mph
1026.1mb 60f 59f
12:00pm 5.5ft 8s 7 9 mph 1025.7mb 59f 58f
11:00am 5ft 8s 7 9 mph 1025.4mb 59f 59f
10:00am 4.5ft 8s 7 9 mph 1025.2mb 59f 58f
9:00am 5ft 8s 7 9 mph 1025mb 59f 58f
8:00am 4.5ft 7s 9
mph
1024.7mb 59f 58f
7:00am 5ft 7s 9
mph
1024.6mb 59f 58f
6:00am 4.5ft 8s 9 11 mph 1024.5mb 59f 58f
5:00am 4.5ft 8s 9
mph
1024.3mb 59f 59f
4:00am 5ft 8s 9 11 mph 1024.4mb 59f 59f
3:00am 4.5ft 7s 9 11 mph 1024.3mb 59f 59f
2:00am 4.5ft 8s 9 11 mph 1024.3mb 59f 59f
1:00am 4.5ft 8s 9 11 mph 1024.2mb 59f 59f
12:00am 4.5ft 8s 9 11 mph 1024.4mb 59f 59f
Wed 07/27 11:00pm 4.5ft 8s 9 11 mph 1024.4mb 59f 59f
10:00pm 4.5ft 8s 9 11 mph 1024.4mb 59f 59f
9:00pm 4.5ft 8s 9 11 mph 1024mb 59f 59f
8:00pm 4ft 8s 9 11 mph 1024mb 59f 59f
7:00pm 4.5ft 8s 11 13 mph 1024.2mb 60f 60f
6:00pm 4.5ft 8s 7 9 mph 1024.3mb 59f 60f
5:00pm 4.5ft 8s 7
mph
1024.8mb 59f 59f
4:00pm 3.5ft 8s 9
mph
1024.9mb 59f 59f
3:00pm 4ft 8s 9 11 mph 1024.9mb 59f 60f
2:00pm 3.5ft 8s 7
mph
1024.9mb 59f 60f
1:00pm 4ft 7s 9 11 mph 1024.9mb 59f 60f
12:00pm 3.5ft 6s 7 9 mph 1024.7mb 59f 59f
11:00am 3.5ft 6s 7 11 mph 1024.3mb 59f 59f
10:00am 3.5ft 7s 7 9 mph 1024.1mb 59f 59f
9:00am 3.5ft 6s 7
mph
1023.8mb 59f 58f
8:00am 3.5ft 7s 7
mph
1023.6mb 59f 58f
7:00am 3.5ft 8s 9 11 mph 1023.4mb 59f 58f
6:00am 3.5ft 7s 7 9 mph 1023.2mb 59f 58f
5:00am 3.5ft 8s 7 9 mph 1023.1mb 59f 59f
4:00am 3.5ft 7s 7 9 mph 1023.1mb 59f 59f
3:00am 3.5ft 7s 7 9 mph 1023.1mb 59f 59f
2:00am 4ft 8s 7 9 mph 1023.2mb 59f 59f
1:00am 4ft 7s 7 9 mph 1023.4mb 59f 59f
12:00am 4ft 7s 7 9 mph 1023.5mb 59f 59f
Tue 07/26 11:00pm 4ft 7s 9
mph
1023.4mb 59f 59f
10:00pm 4.5ft 7s 7
mph
1023.2mb 59f 59f
9:00pm 4ft 7s 7 9 mph 1023.1mb 59f 59f
8:00pm 4ft 8s 4 7 mph 1023mb 59f 59f
7:00pm 4ft 8s 4 7 mph 1023.2mb 59f 59f
6:00pm 4.5ft 8s 9 11 mph 1023.3mb 59f 59f
5:00pm 4ft 7s 9 11 mph 1023.4mb 59f 59f
4:00pm 4.5ft 7s 9 11 mph 1023.2mb 59f 59f
3:00pm 4.5ft 6s 9 13 mph 1023.2mb 59f 59f
2:00pm 4.5ft 7s 11 13 mph 1023.1mb 59f 59f
1:00pm 4ft 6s 9 11 mph 1022.9mb 58f 59f
12:00pm 4ft 8s 11 13 mph 1022.7mb 58f 58f
11:00am 4ft 9s 11 13 mph 1022.4mb 58f 58f
10:00am 4ft 6s 11 13 mph 1022.3mb 58f 58f
9:00am 4ft 8s 11 13 mph 1021.9mb 58f 58f
8:00am 3.5ft 8s 11 13 mph 1021.8mb 58f 58f
7:00am 4ft 8s 11 13 mph 1021.5mb 58f 58f
6:00am 4ft 8s 9 11 mph 1021.4mb 58f 58f
5:00am 3.5ft 15s 11 13 mph 1021.5mb 59f 57f
4:00am 3.5ft 9s 13 16 mph 1021.5mb 59f 57f
3:00am 3.5ft 9s 9 11 mph 1021.6mb 59f 58f
2:00am 3.5ft 8s 7 9 mph 1021.7mb 59f 59f
1:00am 4ft 9s 9
mph
1021.9mb 59f 59f
12:00am 4ft 9s 9
mph
1021.8mb 59f 58f
Mon 07/25 11:00pm 4ft 9s 9
mph
1021.7mb 59f 58f